Time;durP1;ratioP1;P1;durP2;ratioP2;P2;SDS_P1;SDS_P2;PMS_P1;PMS_P2;Temp;Humidity;BMP_temperature;BMP_pressure;BME280_temperature;BME280_humidity;BME280_pressure;Samples;Min_cycle;Max_cycle;Signal;HPM_P1;HPM_P2
2024/04/04 07:41:23;;;;;;;;;;;;;;;;;;6162907;22;20979;-92
2024/04/04 08:34:00;;;;;;;;;;;;;;;;;;6218028;23;19920;-92
2024/04/04 08:36:26;;;;;;;;;;;;;;;;;;6192761;23;20311;-91
2024/04/04 08:38:52;;;;;;;;;;;;;;;;;;6192610;23;19916;-91
2024/04/04 08:41:19;;;;;;;;;;;;;;;;;;6218443;23;19931;-89
2024/04/04 08:43:44;;;;;;;;;;;;;;;;;;6191886;23;19908;-88
2024/04/04 08:46:11;;;;;;;;;;;;;;;;;;6218491;23;19911;-89
2024/04/04 08:48:37;;;;;;;;;;;;;;;;;;6194935;23;19983;-95
2024/04/04 08:51:04;;;;;;;;;;;;;;;;;;6203305;22;19930;-94
2024/04/04 08:53:31;;;;;;;;;;;;;;;;;;6257190;23;19912;-92
2024/04/04 08:55:58;;;;;;;;;;;;;;;;;;6222228;23;19914;-90
2024/04/04 08:58:24;;;;;;;;;;;;;;;;;;6251652;23;19915;-93
2024/04/04 09:00:50;;;;;;;;;;;;;;;;;;6238466;23;19903;-90
2024/04/04 09:03:16;;;;;;;;;;;;;;;;;;6218864;23;19914;-90
2024/04/04 09:05:42;;;;;;;;;;;;;;;;;;6218424;23;19904;-91
2024/04/04 09:08:07;;;;;;;;;;;;;;;;;;6192252;23;20319;-91
2024/04/04 09:10:32;;;;;;;;;;;;;;;;;;6218754;23;19919;-90
2024/04/04 09:13:02;;;;;;;;;;;;;;;;;;6170574;23;19930;-95
2024/04/04 09:15:27;;;;;;;;;;;;;;;;;;6194454;23;19896;-94
2024/04/04 09:18:00;;;;;;;;;;;;;;;;;;6194200;23;19950;-92
2024/04/04 09:20:26;;;;;;;;;;;;;;;;;;6192286;23;20235;-90
2024/04/04 09:22:52;;;;;;;;;;;;;;;;;;6192307;23;19907;-92
2024/04/04 09:25:17;;;;;;;;;;;;;;;;;;6191980;23;19957;-91
2024/04/04 09:27:43;;;;;;;;;;;;;;;;;;6195861;23;20270;-90
2024/04/04 09:30:11;;;;;;;;;;;;;;;;;;6199691;23;19908;-90
2024/04/04 09:32:36;;;;;;;;;;;;;;;;;;6201013;23;19907;-91
2024/04/04 09:35:02;;;;;;;;;;;;;;;;;;6205797;23;19912;-90
2024/04/04 09:37:29;;;;;;;;;;;;;;;;;;6229248;23;19991;-90
2024/04/04 09:39:55;;;;;;;;;;;;;;;;;;6195468;23;19915;-93
2024/04/04 09:42:22;;;;;;;;;;;;;;;;;;6215264;23;19919;-92
2024/04/04 09:44:48;;;;;;;;;;;;;;;;;;6207377;23;19912;-91
2024/04/04 09:47:14;;;;;;;;;;;;;;;;;;6216695;23;19918;-91
2024/04/04 09:49:40;;;;;;;;;;;;;;;;;;6190660;23;19896;-94
2024/04/04 09:52:06;;;;;;;;;;;;;;;;;;6212702;23;19906;-92
2024/04/04 09:54:32;;;;;;;;;;;;;;;;;;6218197;22;19903;-92
2024/04/04 09:56:58;;;;;;;;;;;;;;;;;;6243678;22;19896;-92
2024/04/04 09:59:27;;;;;;;;;;;;;;;;;;6217196;23;19896;-93
2024/04/04 10:02:00;;;;;;;;;;;;;;;;;;6241529;22;19903;-92
2024/04/04 10:04:31;;;;;;;;;;;;;;;;;;6217774;23;19896;-92
2024/04/04 10:06:57;;;;;;;;;;;;;;;;;;6217418;23;19895;-92
2024/04/04 10:09:23;;;;;;;;;;;;;;;;;;6217656;22;19926;-89
2024/04/04 10:11:49;;;;;;;;;;;;;;;;;;6218030;22;19915;-90
2024/04/04 10:14:22;;;;;;;;;;;;;;;;;;6218076;23;19915;-89
2024/04/04 10:16:50;;;;;;;;;;;;;;;;;;6235490;22;19919;-95
2024/04/04 10:19:20;;;;;;;;;;;;;;;;;;6170386;23;19911;-92
2024/04/04 10:21:46;;;;;;;;;;;;;;;;;;6193952;23;19914;-93
2024/04/04 10:24:21;;;;;;;;;;;;;;;;;;6168438;23;19928;-95
2024/04/04 10:26:54;;;;;;;;;;;;;;;;;;6193132;23;19908;-95
2024/04/04 10:29:20;;;;;;;;;;;;;;;;;;6193419;23;20323;-95
2024/04/04 10:31:45;;;;;;;;;;;;;;;;;;6193321;23;19914;-94
2024/04/04 10:34:12;;;;;;;;;;;;;;;;;;6196047;23;19911;-94
2024/04/04 10:36:45;;;;;;;;;;;;;;;;;;6194915;23;20265;-92
2024/04/04 10:39:16;;;;;;;;;;;;;;;;;;6194998;23;20334;-91
2024/04/04 10:41:42;;;;;;;;;;;;;;;;;;6192372;23;19908;-92
2024/04/04 10:44:09;;;;;;;;;;;;;;;;;;6218370;23;19953;-89
2024/04/04 10:46:38;;;;;;;;;;;;;;;;;;6219485;23;19911;-89
2024/04/04 10:49:04;;;;;;;;;;;;;;;;;;6191999;23;19970;-95
2024/04/04 10:51:29;;;;;;;;;;;;;;;;;;6191113;23;20315;-90
2024/04/04 10:53:56;;;;;;;;;;;;;;;;;;6192099;23;19942;-92
2024/04/04 10:56:23;;;;;;;;;;;;;;;;;;6197754;23;19976;-94
2024/04/04 10:58:49;;;;;;;;;;;;;;;;;;6190581;23;19908;-88
2024/04/04 11:01:15;;;;;;;;;;;;;;;;;;6216672;23;19915;-91
2024/04/04 11:03:40;;;;;;;;;;;;;;;;;;6217215;23;19908;-91
2024/04/04 11:06:05;;;;;;;;;;;;;;;;;;6218129;23;20239;-93
2024/04/04 11:08:31;;;;;;;;;;;;;;;;;;6191161;23;19911;-94
2024/04/04 11:10:56;;;;;;;;;;;;;;;;;;6218320;23;19912;-91
2024/04/04 11:13:22;;;;;;;;;;;;;;;;;;6217927;23;19907;-92
2024/04/04 11:15:47;;;;;;;;;;;;;;;;;;6191146;23;19908;-96
2024/04/04 11:18:12;;;;;;;;;;;;;;;;;;6191546;23;19950;-91
2024/04/04 11:20:38;;;;;;;;;;;;;;;;;;6217715;23;19915;-95
2024/04/04 11:23:03;;;;;;;;;;;;;;;;;;6217863;23;19915;-95
2024/04/04 11:25:29;;;;;;;;;;;;;;;;;;6218419;23;20063;-95
2024/04/04 11:27:54;;;;;;;;;;;;;;;;;;6191061;23;19943;-95
2024/04/04 11:30:20;;;;;;;;;;;;;;;;;;6191871;23;19935;-96
2024/04/04 11:32:46;;;;;;;;;;;;;;;;;;6191820;23;19954;-94
2024/04/04 11:35:12;;;;;;;;;;;;;;;;;;6196774;23;19908;-95
2024/04/04 11:37:40;;;;;;;;;;;;;;;;;;6230947;23;19908;-94
2024/04/04 11:40:09;;;;;;;;;;;;;;;;;;6203688;23;20292;-93
2024/04/04 11:42:34;;;;;;;;;;;;;;;;;;6227388;23;19911;-92
2024/04/04 11:45:00;;;;;;;;;;;;;;;;;;6221977;23;20239;-93
2024/04/04 11:47:30;;;;;;;;;;;;;;;;;;6194598;23;20232;-92
2024/04/04 17:38:32;;;;;;;;;;;;;;;;;;6246944;23;19915;-88
2024/04/04 17:41:00;;;;;;;;;;;;;;;;;;6223260;23;19916;-90
2024/04/04 17:43:26;;;;;;;;;;;;;;;;;;6222289;23;19977;-91
2024/04/04 17:45:52;;;;;;;;;;;;;;;;;;6222544;23;20331;-90
2024/04/04 17:48:17;;;;;;;;;;;;;;;;;;6222760;23;20314;-93
2024/04/04 17:50:43;;;;;;;;;;;;;;;;;;6249706;23;19907;-92
2024/04/04 17:53:08;;;;;;;;;;;;;;;;;;6249175;23;20337;-92
2024/04/04 17:55:33;;;;;;;;;;;;;;;;;;6224488;23;20230;-91
2024/04/04 17:58:03;;;;;;;;;;;;;;;;;;6249052;23;20386;-91
2024/04/04 18:00:29;;;;;;;;;;;;;;;;;;6222087;23;19912;-89
2024/04/04 18:02:54;;;;;;;;;;;;;;;;;;6221587;23;19951;-89
2024/04/04 18:05:20;;;;;;;;;;;;;;;;;;6221921;23;19947;-90
2024/04/04 18:07:45;;;;;;;;;;;;;;;;;;6248787;23;20227;-91
2024/04/04 18:10:12;;;;;;;;;;;;;;;;;;6248382;23;19912;-90
2024/04/04 18:12:38;;;;;;;;;;;;;;;;;;6221550;23;20245;-92
2024/04/04 18:15:04;;;;;;;;;;;;;;;;;;6221548;23;19939;-90
2024/04/04 18:17:29;;;;;;;;;;;;;;;;;;6222165;23;19926;-93
2024/04/04 18:19:55;;;;;;;;;;;;;;;;;;6226899;23;19916;-94
2024/04/04 18:22:31;;;;;;;;;;;;;;;;;;6200051;23;19995;-95
2024/04/04 18:24:58;;;;;;;;;;;;;;;;;;6244329;23;20242;-94
2024/04/04 18:27:23;;;;;;;;;;;;;;;;;;6227601;23;19912;-94
2024/04/04 18:29:49;;;;;;;;;;;;;;;;;;6224041;23;19912;-95
2024/04/04 18:32:15;;;;;;;;;;;;;;;;;;6223475;23;19916;-92
2024/04/04 18:34:40;;;;;;;;;;;;;;;;;;6221014;23;19917;-90
2024/04/04 18:37:05;;;;;;;;;;;;;;;;;;6221477;23;19916;-94
2024/04/04 18:39:31;;;;;;;;;;;;;;;;;;6221428;23;19965;-92
2024/04/04 18:41:57;;;;;;;;;;;;;;;;;;6221239;23;19912;-93
2024/04/04 18:44:23;;;;;;;;;;;;;;;;;;6221609;23;19911;-95
2024/04/04 18:46:49;;;;;;;;;;;;;;;;;;6223627;23;20277;-92
2024/04/04 18:49:14;;;;;;;;;;;;;;;;;;6225650;23;19919;-93
2024/04/04 18:51:40;;;;;;;;;;;;;;;;;;6221964;23;19933;-92
2024/04/04 18:54:06;;;;;;;;;;;;;;;;;;6229349;23;19919;-92
2024/04/04 18:56:31;;;;;;;;;;;;;;;;;;6232244;23;20018;-94
2024/04/04 18:58:57;;;;;;;;;;;;;;;;;;6222576;23;19912;-94
2024/04/04 19:01:22;;;;;;;;;;;;;;;;;;6227239;23;19911;-90
2024/04/04 19:03:48;;;;;;;;;;;;;;;;;;6227561;23;19911;-95
2024/04/04 19:06:13;;;;;;;;;;;;;;;;;;6250776;23;19934;-90
2024/04/04 19:08:38;;;;;;;;;;;;;;;;;;6223256;23;19911;-94
2024/04/04 19:11:03;;;;;;;;;;;;;;;;;;6222455;23;20215;-93
2024/04/04 19:13:29;;;;;;;;;;;;;;;;;;6221992;23;20296;-94
2024/04/04 19:15:55;;;;;;;;;;;;;;;;;;6222389;23;20246;-93
2024/04/04 19:18:20;;;;;;;;;;;;;;;;;;6222190;23;19912;-94
2024/04/04 19:20:59;;;;;;;;;;;;;;;;;;6223977;23;19912;-91
2024/04/04 19:23:25;;;;;;;;;;;;;;;;;;6242764;22;19919;-93
2024/04/04 19:25:54;;;;;;;;;;;;;;;;;;6252598;22;19917;-93
2024/04/04 19:28:20;;;;;;;;;;;;;;;;;;6251634;22;19990;-91
2024/04/04 19:30:54;;;;;;;;;;;;;;;;;;6251655;22;19937;-94
2024/04/04 19:33:20;;;;;;;;;;;;;;;;;;6251730;22;19912;-94
2024/04/04 19:35:47;;;;;;;;;;;;;;;;;;6251439;22;19950;-96
2024/04/04 19:38:12;;;;;;;;;;;;;;;;;;6278977;22;19911;-94
2024/04/04 19:40:37;;;;;;;;;;;;;;;;;;6251746;22;19918;-93
2024/04/04 19:43:03;;;;;;;;;;;;;;;;;;6251887;22;19911;-93
2024/04/04 19:45:28;;;;;;;;;;;;;;;;;;6251876;22;20002;-93
2024/04/04 19:47:54;;;;;;;;;;;;;;;;;;6251750;22;20002;-93
2024/04/04 19:50:19;;;;;;;;;;;;;;;;;;6278944;22;19911;-93
2024/04/04 19:52:44;;;;;;;;;;;;;;;;;;6251514;22;19915;-95
2024/04/04 19:55:09;;;;;;;;;;;;;;;;;;6252997;22;19915;-95
2024/04/04 19:57:35;;;;;;;;;;;;;;;;;;6254920;22;19922;-94
2024/04/04 20:00:00;;;;;;;;;;;;;;;;;;6253903;22;19964;-94
2024/04/04 20:02:26;;;;;;;;;;;;;;;;;;6280863;22;19946;-96
2024/04/04 20:04:51;;;;;;;;;;;;;;;;;;6253701;22;19911;-95
2024/04/04 20:07:17;;;;;;;;;;;;;;;;;;6253881;22;20334;-95
2024/04/04 20:09:43;;;;;;;;;;;;;;;;;;6281750;22;19912;-94
2024/04/04 20:12:08;;;;;;;;;;;;;;;;;;6253573;22;19912;-95
2024/04/04 20:14:34;;;;;;;;;;;;;;;;;;6253696;22;19911;-94
2024/04/04 20:16:59;;;;;;;;;;;;;;;;;;6253301;22;20323;-94
2024/04/04 20:19:24;;;;;;;;;;;;;;;;;;6253571;22;19994;-94
2024/04/04 20:21:50;;;;;;;;;;;;;;;;;;6253323;22;19915;-94
2024/04/04 20:24:15;;;;;;;;;;;;;;;;;;6253120;22;19915;-94
2024/04/04 20:26:40;;;;;;;;;;;;;;;;;;6253241;22;19911;-91
2024/04/04 20:29:06;;;;;;;;;;;;;;;;;;6253451;22;19964;-93
2024/04/04 20:31:31;;;;;;;;;;;;;;;;;;6253938;22;19911;-94
2024/04/04 20:33:57;;;;;;;;;;;;;;;;;;6253157;22;19973;-94
2024/04/04 20:36:22;;;;;;;;;;;;;;;;;;6252780;22;20208;-93
2024/04/04 20:38:47;;;;;;;;;;;;;;;;;;6253458;22;19915;-93
2024/04/04 20:41:13;;;;;;;;;;;;;;;;;;6253596;22;19911;-93
2024/04/04 20:43:38;;;;;;;;;;;;;;;;;;6253179;22;19919;-94
2024/04/04 20:46:03;;;;;;;;;;;;;;;;;;6253336;22;19911;-93
2024/04/04 20:48:29;;;;;;;;;;;;;;;;;;6253194;22;19918;-93
2024/04/04 20:50:54;;;;;;;;;;;;;;;;;;6280307;22;19911;-93
2024/04/04 20:53:19;;;;;;;;;;;;;;;;;;6253411;22;19915;-94
2024/04/04 20:55:45;;;;;;;;;;;;;;;;;;6253684;22;19959;-94
2024/04/04 20:58:12;;;;;;;;;;;;;;;;;;6254082;22;19912;-93
2024/04/04 21:00:37;;;;;;;;;;;;;;;;;;6255186;22;19911;-95
2024/04/04 21:03:02;;;;;;;;;;;;;;;;;;6264029;22;19931;-93
2024/04/04 21:05:28;;;;;;;;;;;;;;;;;;6270425;22;20275;-93
2024/04/04 21:07:54;;;;;;;;;;;;;;;;;;6270885;22;19918;-94
2024/04/04 21:10:19;;;;;;;;;;;;;;;;;;6260057;22;19915;-94
2024/04/04 21:12:44;;;;;;;;;;;;;;;;;;6254949;22;19911;-94
2024/04/04 21:15:10;;;;;;;;;;;;;;;;;;6253449;22;19915;-95
2024/04/04 21:17:35;;;;;;;;;;;;;;;;;;6252889;22;20350;-92
2024/04/04 21:20:04;;;;;;;;;;;;;;;;;;6252886;22;19911;-93
2024/04/04 21:22:29;;;;;;;;;;;;;;;;;;6252752;22;19926;-93
2024/04/04 21:24:54;;;;;;;;;;;;;;;;;;6252884;22;19931;-93
2024/04/04 21:27:21;;;;;;;;;;;;;;;;;;6252688;22;19907;-91
2024/04/04 21:29:46;;;;;;;;;;;;;;;;;;6252976;22;19911;-93
2024/04/04 21:32:12;;;;;;;;;;;;;;;;;;6252564;22;19933;-92
2024/04/04 21:34:37;;;;;;;;;;;;;;;;;;6252678;22;19907;-94
2024/04/04 21:37:03;;;;;;;;;;;;;;;;;;6252799;22;19911;-93
2024/04/04 21:39:28;;;;;;;;;;;;;;;;;;6252628;22;19911;-92
2024/04/04 21:41:53;;;;;;;;;;;;;;;;;;6252739;22;19912;-92
2024/04/04 21:44:19;;;;;;;;;;;;;;;;;;6252784;22;19998;-94
2024/04/04 21:46:45;;;;;;;;;;;;;;;;;;6252760;22;19978;-94
2024/04/04 21:49:10;;;;;;;;;;;;;;;;;;6252849;22;19915;-93
2024/04/04 21:51:36;;;;;;;;;;;;;;;;;;6252515;22;19922;-92
2024/04/04 21:54:01;;;;;;;;;;;;;;;;;;6252649;22;19950;-93
2024/04/04 21:56:27;;;;;;;;;;;;;;;;;;6253644;22;19946;-93
2024/04/04 21:58:53;;;;;;;;;;;;;;;;;;6272167;22;19918;-93
2024/04/04 22:01:18;;;;;;;;;;;;;;;;;;6274943;22;19911;-93
2024/04/04 22:03:44;;;;;;;;;;;;;;;;;;6269599;22;19911;-91
2024/04/04 22:06:09;;;;;;;;;;;;;;;;;;6278975;22;19921;-91
2024/04/04 22:08:34;;;;;;;;;;;;;;;;;;6278254;22;19940;-92
2024/04/04 22:11:00;;;;;;;;;;;;;;;;;;6278640;22;19942;-93
2024/04/04 22:13:26;;;;;;;;;;;;;;;;;;6278781;22;19934;-92
2024/04/04 22:15:55;;;;;;;;;;;;;;;;;;6278928;22;19915;-91
2024/04/04 22:18:30;;;;;;;;;;;;;;;;;;6277944;22;19908;-94
2024/04/04 22:20:56;;;;;;;;;;;;;;;;;;6256548;22;19915;-92
2024/04/04 22:23:24;;;;;;;;;;;;;;;;;;6254878;22;19926;-93
2024/04/04 22:25:49;;;;;;;;;;;;;;;;;;6253724;22;19916;-92
2024/04/04 22:28:16;;;;;;;;;;;;;;;;;;6253277;22;19911;-92
2024/04/04 22:30:41;;;;;;;;;;;;;;;;;;6252234;22;19918;-92
2024/04/04 22:33:06;;;;;;;;;;;;;;;;;;6252445;22;19915;-91
2024/04/04 22:35:32;;;;;;;;;;;;;;;;;;6226690;22;19915;-93
2024/04/04 22:37:58;;;;;;;;;;;;;;;;;;6251783;22;20322;-92
